»·PEaware :: WAT574 KPOC-KOXR

WAT574 :: KPOC-KOXR

FLIGHT INFORMATION

Flight Status: Arrived
Operator:
Walker Air Transport
More flights by this operator :: More flights under this callsign
Pilot: John R. (31973)
Aircraft: CESSNA 172 SKYHAWK
(C172)
More flights by this aircraft type
Origin: KPOC Brackett
United States
Destination: KOXR Oxnard
United States
More flights between these airports :: More routes between these airports
Route:
File this flight plan on PilotEdge
Remarks:
Altitude:
(Current/Filed)
2,500ft
Speed:
(Current/Filed)
100kts
Departed: 17-Jul-21 08:21 PM
Arrived: 17-Jul-21 09:03 PM
Distance/Time
Traveled:
6763nm/0:42
Distance/Time
To Go:
Arrived

Flight Plot

Page will automatically refresh every two minutes.

Flight plan parsing failed; only flown route is shown


Map Options




Map Legend


Flown Route
Filed Route
Departure Airport
Arrival Airport
Navaid (VOR, NDB)
Fix

Horizontal Profiles

Position Reports

Time Latitude Longitude Heading Altitude Ground
Speed
17-Jul-21 20:12 34.090420 -117.781718 354 995ft 0kts
17-Jul-21 20:13 34.090420 -117.781718 354 995ft 0kts
17-Jul-21 20:14 34.090420 -117.781718 354 995ft 0kts
17-Jul-21 20:15 34.090539 -117.780021 94 999ft 12kts
17-Jul-21 20:16 34.090337 -117.776375 91 1006ft 9kts
17-Jul-21 20:17 34.090550 -117.774662 5 1012ft 0kts
17-Jul-21 20:18 34.090550 -117.774662 5 1012ft 0kts
17-Jul-21 20:19 34.091000 -117.775023 273 1013ft 10kts
17-Jul-21 20:20 34.092112 -117.795538 269 1443ft 79kts
17-Jul-21 20:21 34.092271 -117.827326 267 2035ft 100kts
17-Jul-21 20:22 34.092674 -117.862135 275 2493ft 107kts
17-Jul-21 20:23 34.094080 -117.897445 270 2798ft 106kts
17-Jul-21 20:24 34.093167 -117.933100 263 2770ft 106kts
17-Jul-21 20:25 34.092938 -117.969000 266 2658ft 105kts
17-Jul-21 20:26 34.092032 -118.004728 259 2605ft 106kts
17-Jul-21 20:27 34.095192 -118.040094 277 2495ft 108kts
17-Jul-21 20:28 34.097248 -118.075653 279 2424ft 107kts
17-Jul-21 20:29 34.100581 -118.110787 274 2467ft 106kts
17-Jul-21 20:30 34.102558 -118.146150 256 2533ft 105kts
17-Jul-21 20:31 34.107624 -118.181246 274 2582ft 106kts
17-Jul-21 20:32 34.108542 -118.216754 276 2559ft 107kts
17-Jul-21 20:33 34.109574 -118.252637 269 2533ft 106kts
17-Jul-21 20:34 34.108959 -118.288254 280 2487ft 107kts
17-Jul-21 20:35 34.111027 -118.323802 266 2486ft 106kts
17-Jul-21 20:36 34.109851 -118.359478 266 2489ft 106kts
17-Jul-21 20:37 34.113637 -118.394831 276 2489ft 106kts
17-Jul-21 20:38 34.113414 -118.430271 264 2469ft 106kts
17-Jul-21 20:39 34.117053 -118.465770 267 2459ft 106kts
17-Jul-21 20:40 34.116875 -118.501431 266 2446ft 106kts
17-Jul-21 20:41 34.119567 -118.537057 279 2437ft 106kts
17-Jul-21 20:42 34.123802 -118.571736 273 2469ft 105kts
17-Jul-21 20:44 34.126419 -118.607235 268 2451ft 106kts
17-Jul-21 20:45 34.129936 -118.642507 276 2443ft 105kts
17-Jul-21 20:46 34.131416 -118.678080 277 2426ft 106kts
17-Jul-21 20:47 34.136235 -118.713141 272 2448ft 105kts
17-Jul-21 20:48 34.139137 -118.748403 275 2449ft 105kts
17-Jul-21 20:49 34.140769 -118.783457 265 2455ft 104kts
17-Jul-21 20:50 34.139109 -118.818472 264 2472ft 104kts
17-Jul-21 20:51 34.145170 -118.851814 300 2478ft 105kts
17-Jul-21 20:52 34.151902 -118.883785 254 2523ft 102kts
17-Jul-21 20:53 34.148352 -118.917899 271 2553ft 103kts
17-Jul-21 20:54 34.148656 -118.952316 268 2626ft 102kts
17-Jul-21 20:55 34.150875 -118.986677 275 2635ft 103kts
17-Jul-21 20:56 34.157147 -119.019864 316 2489ft 111kts
17-Jul-21 20:57 34.179586 -119.043304 325 2496ft 109kts
17-Jul-21 20:58 34.201666 -119.066736 281 2393ft 109kts
17-Jul-21 20:59 34.201762 -119.099658 265 2080ft 86kts
17-Jul-21 21:00 34.200684 -119.129002 267 1593ft 90kts
17-Jul-21 21:01 34.200538 -119.159039 269 928ft 89kts
17-Jul-21 21:02 34.200692 -119.186722 270 278ft 73kts
17-Jul-21 21:03 34.200727 -119.206880 260 48ft 26kts
17-Jul-21 21:04 34.200029 -119.206960 133 47ft 0kts
17-Jul-21 21:05 34.199787 -119.204007 90 47ft 22kts
17-Jul-21 21:06 34.199301 -119.198902 181 44ft 4kts
17-Jul-21 21:06 34.198370 -119.197629 183 45ft 0kts
17-Jul-21 21:08 34.198370 -119.197629 183 45ft 0kts
17-Jul-21 21:09 34.198370 -119.197629 183 45ft 0kts
17-Jul-21 21:10 34.198370 -119.197629 183 45ft 0kts
17-Jul-21 21:11 0.000408 0.013975 359 3ft 0kts

Navigation Log

Ident Type
Flight plan parsing failed, navigation log unavailable